YTQY weather

Torquay Airport
Torquay, Victoria, Australia

Public forecast

Using degrees Celsius for public forecast. Weather courtesy of forecast.io.

METAR (pilot weather report)

Closest report is Avalon Airport, 16.4 nm (30.4 km) NNE. Retrieved 2019/04/20 10:00 UTC (16 minutes ago):

YMAV 201000Z AUTO 36004KT 9999 // NCD 18/09 Q1018 RF00.0/000.0

TAF (pilot weather forecast)

Closest forecast is Avalon Airport, 16.4 nm (30.4 km) NNE. Retrieved 2019/04/20 06:00 UTC (4 hours ago):

TAF YMAV 200505Z 2006/2106 13008KT CAVOK FM201000 01006KT CAVOK BECMG 2018/2020 01015G25KT CAVOK